Terminal Aerodrome Forecast
Issued by NWS Louisville, KY

Home | Current Version | Previous Version | Text Only | Print | Product List | Glossary On
Versions: 1 2 3 4 5 6 7 8 9 10 11 12 13 14 15 16 17 18
000
FTUS43 KLMK 262005 AAA
TAFSDF
TAF AMD
KSDF 262005Z 2620/2724 22012G18KT P6SM -SHRA BKN045
     FM270100 22005KT P6SM BKN035
     FM270900 VRB03KT 6SM BR FEW025 SCT250
     FM271500 16006KT P6SM VCSH SCT035 BKN150=

USA.gov is the U.S. government's official web portal to all federal, state and local government web resources and services.